Terminal Aerodrome Forecast
Issued by NWS

Home | Current Version | Previous Version | Text Only | Print | Product List | Glossary On
Versions: 1 2 3 4 5 6 7 8 9 10 11 12 13
000
FTAK31 PAJN 200500
TAFAKT
TAF
PAKT 200525Z 2006/2106 33007KT P6SM BKN070
     FM200900 32003KT P6SM BCFG FEW005 SCT070
     FM201600 33008KT P6SM SCT070 SCT100
     FM202300 07008KT P6SM SCT100
     FM210200 12007KT P6SM SCT100
      AMD LTD TO CLD VIS AND WIND TIL 201500=

USA.gov is the U.S. government's official web portal to all federal, state and local government web resources and services.